createdAt,value
2023-05-22T00:00:02.986Z,93.46
2023-05-22T00:01:02.915Z,93.35
2023-05-22T00:02:02.899Z,93.55
2023-05-22T00:03:03.043Z,93.15
2023-05-22T00:04:02.949Z,93.46
2023-05-22T00:05:02.911Z,93.55
2023-05-22T00:06:02.854Z,93.46
2023-05-22T00:07:02.835Z,93.70
2023-05-22T00:08:02.872Z,93.70
2023-05-22T00:09:02.866Z,93.80
2023-05-22T00:10:02.817Z,93.90
2023-05-22T00:11:02.819Z,93.90
2023-05-22T00:12:02.798Z,94.40
2023-05-22T00:13:02.848Z,94.31
2023-05-22T00:14:02.778Z,94.10
2023-05-22T00:15:02.797Z,93.90
2023-05-22T00:16:02.717Z,93.70
2023-05-22T00:17:02.759Z,93.40
2023-05-22T00:18:02.826Z,93.19
2023-05-22T00:19:02.715Z,92.99
2023-05-22T00:20:02.715Z,93.10
2023-05-22T00:21:02.703Z,93.10
2023-05-22T00:22:02.700Z,92.99
2023-05-22T00:23:02.689Z,92.79
2023-05-22T00:24:02.683Z,92.49
2023-05-22T00:25:02.643Z,92.59
2023-05-22T00:26:02.615Z,92.79
2023-05-22T00:27:02.619Z,93.10
2023-05-22T00:28:02.636Z,93.30
2023-05-22T00:29:02.588Z,93.30
2023-05-22T00:30:02.606Z,93.19
2023-05-22T00:31:02.558Z,92.99
2023-05-22T00:32:02.550Z,93.10
2023-05-22T00:33:02.636Z,92.99
2023-05-22T00:34:02.590Z,93.10
2023-05-22T00:35:02.530Z,93.10
2023-05-22T00:36:02.531Z,93.19
2023-05-22T00:37:02.549Z,93.10
2023-05-22T00:38:02.533Z,93.30
2023-05-22T00:39:02.465Z,93.40
2023-05-22T00:40:02.511Z,92.99
2023-05-22T00:41:02.477Z,92.90
2023-05-22T00:42:02.457Z,92.74
2023-05-22T00:43:02.463Z,92.83
2023-05-22T00:44:02.536Z,92.74
2023-05-22T00:45:02.421Z,92.74
2023-05-22T00:46:02.470Z,92.33
2023-05-22T00:47:02.520Z,92.33
2023-05-22T00:48:02.492Z,92.13
2023-05-22T00:49:02.391Z,92.03
2023-05-22T00:50:02.389Z,91.83
2023-05-22T00:51:02.394Z,91.58
2023-05-22T00:52:02.394Z,91.69
2023-05-22T00:53:02.342Z,91.38
2023-05-22T00:54:02.335Z,91.58
2023-05-22T00:55:02.302Z,91.38
2023-05-22T00:56:02.321Z,91.18
2023-05-22T00:57:02.279Z,91.08
2023-05-22T00:58:02.331Z,91.18
2023-05-22T00:59:02.276Z,91.08
2023-05-22T01:00:02.258Z,90.88
2023-05-22T01:01:02.254Z,90.88
2023-05-22T01:02:02.252Z,90.68
2023-05-22T01:03:02.306Z,91.08
2023-05-22T01:04:02.367Z,91.08
2023-05-22T01:05:02.195Z,90.88
2023-05-22T01:06:07.283Z,90.88
2023-05-22T01:07:02.168Z,90.68
2023-05-22T01:08:02.594Z,90.58
2023-05-22T01:09:02.163Z,90.78
2023-05-22T01:10:02.165Z,90.48
2023-05-22T01:11:02.149Z,90.68
2023-05-22T01:12:02.142Z,90.58
2023-05-22T01:13:02.117Z,90.58
2023-05-22T01:14:02.164Z,90.58
2023-05-22T01:15:02.105Z,90.58
2023-05-22T01:16:02.161Z,90.48
2023-05-22T01:17:02.079Z,90.37
2023-05-22T01:18:02.172Z,90.58
2023-05-22T01:19:02.084Z,91.08
2023-05-22T01:20:02.119Z,91.02
2023-05-22T01:21:02.061Z,91.13
2023-05-22T01:22:02.054Z,90.92
2023-05-22T01:23:01.995Z,90.52
2023-05-22T01:24:01.989Z,90.72
2023-05-22T01:25:02.008Z,90.72
2023-05-22T01:26:02.016Z,90.82
2023-05-22T01:27:02.000Z,90.92
2023-05-22T01:28:01.942Z,90.82
2023-05-22T01:29:01.946Z,90.82
2023-05-22T01:30:01.917Z,91.02
2023-05-22T01:31:01.937Z,90.82
2023-05-22T01:32:01.894Z,91.02
2023-05-22T01:33:01.986Z,91.02
2023-05-22T01:34:01.988Z,91.02
2023-05-22T01:35:01.896Z,90.82
2023-05-22T01:36:01.901Z,90.82
2023-05-22T01:37:01.861Z,90.92
2023-05-22T01:38:01.867Z,91.22
2023-05-22T01:39:01.841Z,91.33
2023-05-22T01:40:02.792Z,91.53
2023-05-22T01:41:01.869Z,91.37
2023-05-22T01:42:01.769Z,91.47
2023-05-22T01:43:01.833Z,91.57
2023-05-22T01:44:01.807Z,91.67
2023-05-22T01:45:01.788Z,91.77
2023-05-22T01:46:01.809Z,91.77
2023-05-22T01:47:01.775Z,91.47
2023-05-22T01:48:01.767Z,91.37
2023-05-22T01:49:01.780Z,90.97
2023-05-22T01:50:01.712Z,91.27
2023-05-22T01:51:01.711Z,91.37
2023-05-22T01:52:01.676Z,91.27
2023-05-22T01:53:01.693Z,91.17
2023-05-22T01:54:01.696Z,91.27
2023-05-22T01:55:01.683Z,91.27
2023-05-22T01:56:01.649Z,91.27
2023-05-22T01:57:01.671Z,90.97
2023-05-22T01:58:01.622Z,91.31
2023-05-22T01:59:01.625Z,91.21
2023-05-22T02:00:01.572Z,91.21
2023-05-22T02:01:01.662Z,91.51
2023-05-22T02:02:01.583Z,91.61
2023-05-22T02:03:01.672Z,91.41
2023-05-22T02:04:01.554Z,91.31
2023-05-22T02:05:01.514Z,91.41
2023-05-22T02:06:01.561Z,91.21
2023-05-22T02:07:01.637Z,91.41
2023-05-22T02:08:01.481Z,91.41
2023-05-22T02:09:01.525Z,91.41
2023-05-22T02:10:01.481Z,91.71
2023-05-22T02:11:01.516Z,91.82
2023-05-22T02:12:01.735Z,91.82
2023-05-22T02:13:01.442Z,91.61
2023-05-22T02:14:01.396Z,91.71
2023-05-22T02:15:01.456Z,91.71
2023-05-22T02:16:01.440Z,91.71
2023-05-22T02:17:01.434Z,91.71
2023-05-22T02:18:01.548Z,91.71
2023-05-22T02:19:01.380Z,91.71
2023-05-22T02:20:01.369Z,91.82
2023-05-22T02:21:01.375Z,91.71
2023-05-22T02:22:01.350Z,91.31
2023-05-22T02:23:01.343Z,91.61
2023-05-22T02:24:01.414Z,91.41
2023-05-22T02:25:01.328Z,91.61
2023-05-22T02:26:01.360Z,91.82
2023-05-22T02:27:01.410Z,91.76
2023-05-22T02:28:01.280Z,91.86
2023-05-22T02:29:01.249Z,91.86
2023-05-22T02:30:01.255Z,91.86
2023-05-22T02:31:01.344Z,91.96
2023-05-22T02:32:01.276Z,91.86
2023-05-22T02:33:01.295Z,91.96
2023-05-22T02:34:01.212Z,92.06
2023-05-22T02:35:01.253Z,92.06
2023-05-22T02:36:01.241Z,92.16
2023-05-22T02:37:01.219Z,92.06
2023-05-22T02:38:01.272Z,92.06
2023-05-22T02:39:01.176Z,92.06
2023-05-22T02:40:01.128Z,92.16
2023-05-22T02:41:01.167Z,92.21
2023-05-22T02:42:01.135Z,92.21
2023-05-22T02:43:01.103Z,92.30
2023-05-22T02:44:01.090Z,92.41
2023-05-22T02:45:01.162Z,92.50
2023-05-22T02:46:01.336Z,92.50
2023-05-22T02:47:01.209Z,92.71
2023-05-22T02:48:01.121Z,92.81
2023-05-22T02:49:01.061Z,92.91
2023-05-22T02:50:01.058Z,93.12
2023-05-22T02:51:01.035Z,93.21
2023-05-22T02:52:01.005Z,93.21
2023-05-22T02:53:01.017Z,93.21
2023-05-22T02:54:00.967Z,93.21
2023-05-22T02:55:00.982Z,93.21
2023-05-22T02:56:00.949Z,93.12
2023-05-22T02:57:01.005Z,93.12
2023-05-22T02:58:00.984Z,93.21
2023-05-22T02:59:00.931Z,93.12
2023-05-22T03:00:00.925Z,93.21
2023-05-22T03:01:00.920Z,93.12
2023-05-22T03:02:00.981Z,93.26
2023-05-22T03:03:01.018Z,93.21
2023-05-22T03:04:00.966Z,93.26
2023-05-22T03:05:00.884Z,93.26
2023-05-22T03:06:00.840Z,93.36
2023-05-22T03:07:00.983Z,93.36
2023-05-22T03:08:00.822Z,93.36
2023-05-22T03:09:00.847Z,93.46
2023-05-22T03:10:00.814Z,93.56
2023-05-22T03:11:00.854Z,93.46
2023-05-22T03:12:00.780Z,93.46
2023-05-22T03:13:00.814Z,93.56
2023-05-22T03:14:00.785Z,93.56
2023-05-22T03:15:01.058Z,93.66
2023-05-22T03:16:00.744Z,93.56
2023-05-22T03:17:00.753Z,93.46
2023-05-22T03:18:00.769Z,93.56
2023-05-22T03:19:00.721Z,93.56
2023-05-22T03:20:00.676Z,93.56
2023-05-22T03:21:00.712Z,93.56
2023-05-22T03:22:00.666Z,93.56
2023-05-22T03:23:00.677Z,93.66
2023-05-22T03:24:00.681Z,93.56
2023-05-22T03:25:00.648Z,93.46
2023-05-22T03:26:00.615Z,93.36
2023-05-22T03:27:00.661Z,93.36
2023-05-22T03:28:00.650Z,93.36
2023-05-22T03:29:00.650Z,93.36
2023-05-22T03:30:00.590Z,93.46
2023-05-22T03:31:00.589Z,93.56
2023-05-22T03:32:00.619Z,93.56
2023-05-22T03:33:00.630Z,93.66
2023-05-22T03:34:00.651Z,93.76
2023-05-22T03:35:00.539Z,93.76
2023-05-22T03:36:00.557Z,93.76
2023-05-22T03:37:00.552Z,93.76
2023-05-22T03:38:00.611Z,93.66
2023-05-22T03:39:00.486Z,93.46
2023-05-22T03:40:00.494Z,93.26
2023-05-22T03:41:00.477Z,93.46
2023-05-22T03:42:00.472Z,93.51
2023-05-22T03:43:00.498Z,93.66
2023-05-22T03:44:00.456Z,93.81
2023-05-22T03:45:00.500Z,93.81
2023-05-22T03:46:00.473Z,93.81
2023-05-22T03:47:00.429Z,93.91
2023-05-22T03:48:00.416Z,93.81
2023-05-22T03:49:01.367Z,93.91
2023-05-22T03:50:00.433Z,94.01
2023-05-22T03:51:00.352Z,94.01
2023-05-22T03:52:00.390Z,93.81
2023-05-22T03:53:00.336Z,93.71
2023-05-22T03:54:00.336Z,93.71
2023-05-22T03:55:00.316Z,93.91
2023-05-22T03:56:00.298Z,93.91
2023-05-22T03:57:00.294Z,93.71
2023-05-22T03:58:00.245Z,93.71
2023-05-22T03:59:00.232Z,93.91
2023-05-22T04:00:00.242Z,94.01
2023-05-22T04:01:00.239Z,94.11
2023-05-22T04:02:00.256Z,93.91
2023-05-22T04:03:00.275Z,93.81
2023-05-22T04:04:00.183Z,94.11
2023-05-22T04:05:00.224Z,94.11
2023-05-22T04:06:00.186Z,93.91
2023-05-22T04:07:00.169Z,93.51
2023-05-22T04:08:00.194Z,93.60
2023-05-22T04:09:00.127Z,93.60
2023-05-22T04:10:00.167Z,93.51
2023-05-22T04:11:00.115Z,93.60
2023-05-22T04:12:00.114Z,93.81
2023-05-22T04:13:00.136Z,94.01
2023-05-22T04:14:00.094Z,94.01
2023-05-22T04:15:00.055Z,94.11
2023-05-22T04:16:00.069Z,94.31
2023-05-22T04:17:00.044Z,94.11
2023-05-22T04:18:00.082Z,94.01
2023-05-22T04:19:00.025Z,93.81
2023-05-22T04:20:00.006Z,93.91
2023-05-22T04:20:59.990Z,93.81
2023-05-22T04:21:59.990Z,94.11
2023-05-22T04:22:59.989Z,93.91
2023-05-22T04:23:59.960Z,93.81
2023-05-22T04:24:59.948Z,93.71
2023-05-22T04:25:59.933Z,93.60
2023-05-22T04:26:59.938Z,93.40
2023-05-22T04:27:59.933Z,93.71
2023-05-22T04:28:59.913Z,93.91
2023-05-22T04:29:59.912Z,94.01
2023-05-22T04:30:59.945Z,94.11
2023-05-22T04:31:59.869Z,94.11
2023-05-22T04:32:59.923Z,94.21
2023-05-22T04:33:59.855Z,94.21
2023-05-22T04:34:59.836Z,94.21
2023-05-22T04:35:59.824Z,94.31
2023-05-22T04:36:59.802Z,94.27
2023-05-22T04:37:59.808Z,94.27
2023-05-22T04:38:59.854Z,94.27
2023-05-22T04:39:59.779Z,94.27
2023-05-22T04:40:59.765Z,94.17
2023-05-22T04:41:59.763Z,93.76
2023-05-22T04:42:59.784Z,93.05
2023-05-22T04:43:59.748Z,92.85
2023-05-22T04:44:59.739Z,92.65
2023-05-22T04:45:59.743Z,92.25
2023-05-22T04:46:59.821Z,92.65
2023-05-22T04:47:59.800Z,92.96
2023-05-22T04:48:59.675Z,93.26
2023-05-22T04:49:59.853Z,93.16
2023-05-22T04:50:59.689Z,93.36
2023-05-22T04:51:59.681Z,93.56
2023-05-22T04:52:59.635Z,93.76
2023-05-22T04:53:59.624Z,93.87
2023-05-22T04:55:01.164Z,93.96
2023-05-22T04:55:59.636Z,94.07
2023-05-22T04:56:59.590Z,94.07
2023-05-22T04:57:59.585Z,94.12
2023-05-22T04:58:59.566Z,94.12
2023-05-22T04:59:59.564Z,94.23
2023-05-22T05:00:59.593Z,94.23
2023-05-22T05:01:59.537Z,94.12
2023-05-22T05:02:59.598Z,94.12
2023-05-22T05:03:59.561Z,94.02
2023-05-22T05:04:59.497Z,94.12
2023-05-22T05:05:59.513Z,94.12
2023-05-22T05:06:59.476Z,94.12
2023-05-22T05:07:59.478Z,94.23
2023-05-22T05:08:59.450Z,94.32
2023-05-22T05:09:59.559Z,94.32
2023-05-22T05:10:59.454Z,94.32
2023-05-22T05:11:59.450Z,94.23
2023-05-22T05:12:59.452Z,94.08
2023-05-22T05:13:59.403Z,93.77
2023-05-22T05:14:59.446Z,93.48
2023-05-22T05:15:59.404Z,93.17
2023-05-22T05:16:59.486Z,93.17
2023-05-22T05:17:59.378Z,93.48
2023-05-22T05:18:59.382Z,93.48
2023-05-22T05:19:59.335Z,93.57
2023-05-22T05:20:59.339Z,93.77
2023-05-22T05:21:59.339Z,93.73
2023-05-22T05:22:59.292Z,93.73
2023-05-22T05:23:59.296Z,93.93
2023-05-22T05:24:59.269Z,93.93
2023-05-22T05:25:59.292Z,93.93
2023-05-22T05:26:59.248Z,94.04
2023-05-22T05:27:59.246Z,94.04
2023-05-22T05:28:59.224Z,94.09
2023-05-22T05:29:59.228Z,94.09
2023-05-22T05:30:59.226Z,93.89
2023-05-22T05:31:59.212Z,93.79
2023-05-22T05:32:59.322Z,93.69
2023-05-22T05:33:59.173Z,93.69
2023-05-22T05:34:59.162Z,93.65
2023-05-22T05:35:59.179Z,93.44
2023-05-22T05:36:59.134Z,93.34
2023-05-22T05:37:59.135Z,93.34
2023-05-22T05:38:59.121Z,93.19
2023-05-22T05:39:59.107Z,93.10
2023-05-22T05:40:59.132Z,92.90
2023-05-22T05:41:59.085Z,92.79
2023-05-22T05:42:59.099Z,92.90
2023-05-22T05:43:59.123Z,92.85
2023-05-22T05:44:59.071Z,92.65
2023-05-22T05:45:59.092Z,92.35
2023-05-22T05:46:59.057Z,92.00
2023-05-22T05:47:59.085Z,91.80
2023-05-22T05:48:59.012Z,91.70
2023-05-22T05:49:59.032Z,91.60
2023-05-22T05:50:59.020Z,90.89
2023-05-22T05:51:59.062Z,90.89
2023-05-22T05:52:58.961Z,91.19
2023-05-22T05:53:59.012Z,91.39
2023-05-22T05:54:58.946Z,91.30
2023-05-22T05:55:58.932Z,90.79
2023-05-22T05:56:59.046Z,90.95
2023-05-22T05:57:58.910Z,90.85
2023-05-22T05:58:58.896Z,91.05
2023-05-22T05:59:58.893Z,90.81
2023-05-22T06:00:58.878Z,90.11
2023-05-22T06:01:58.891Z,90.30
2023-05-22T06:02:58.941Z,90.61
2023-05-22T06:03:58.933Z,90.20
2023-05-22T06:04:58.829Z,90.20
2023-05-22T06:05:58.921Z,90.00
2023-05-22T06:06:58.836Z,89.80
2023-05-22T06:07:58.801Z,89.70
2023-05-22T06:08:58.778Z,89.50
2023-05-22T06:09:58.774Z,89.20
2023-05-22T06:10:58.797Z,89.15
2023-05-22T06:11:58.780Z,89.36
2023-05-22T06:12:58.743Z,89.26
2023-05-22T06:13:58.750Z,89.96
2023-05-22T06:14:58.724Z,90.12
2023-05-22T06:16:01.700Z,90.22
2023-05-22T06:16:58.733Z,89.42
2023-05-22T06:17:58.732Z,89.42
2023-05-22T06:18:58.739Z,89.51
2023-05-22T06:19:58.670Z,89.78
2023-05-22T06:20:58.653Z,89.87
2023-05-22T06:21:58.684Z,89.82
2023-05-22T06:22:58.632Z,89.82
2023-05-22T06:23:58.631Z,89.42
2023-05-22T06:24:58.612Z,89.37
2023-05-22T06:25:58.605Z,88.47
2023-05-22T06:26:58.693Z,88.37
2023-05-22T06:27:58.581Z,88.67
2023-05-22T06:28:58.565Z,88.77
2023-05-22T06:29:58.562Z,88.37
2023-05-22T06:30:58.544Z,88.27
2023-05-22T06:31:58.585Z,88.27
2023-05-22T06:32:58.705Z,88.57
2023-05-22T06:33:58.604Z,88.77
2023-05-22T06:34:58.511Z,88.67
2023-05-22T06:35:58.502Z,88.77
2023-05-22T06:36:58.507Z,88.77
2023-05-22T06:37:58.480Z,88.67
2023-05-22T06:38:58.466Z,88.47
2023-05-22T06:39:58.454Z,88.67
2023-05-22T06:40:58.505Z,89.07
2023-05-22T06:41:58.457Z,88.91
2023-05-22T06:42:58.424Z,88.81
2023-05-22T06:43:58.413Z,88.81
2023-05-22T06:44:58.392Z,88.51
2023-05-22T06:45:58.434Z,88.27
2023-05-22T06:46:58.398Z,88.47
2023-05-22T06:47:58.410Z,89.07
2023-05-22T06:48:58.348Z,89.17
2023-05-22T06:49:58.370Z,89.17
2023-05-22T06:50:58.334Z,89.37
2023-05-22T06:51:58.347Z,89.27
2023-05-22T06:52:58.303Z,88.23
2023-05-22T06:53:58.297Z,87.32
2023-05-22T06:54:58.280Z,86.26
2023-05-22T06:55:58.287Z,85.92
2023-05-22T06:56:58.281Z,86.52
2023-05-22T06:57:58.255Z,87.02
2023-05-22T06:58:58.237Z,87.32
2023-05-22T06:59:58.238Z,86.32
2023-05-22T07:00:58.305Z,86.68
2023-05-22T07:01:58.230Z,87.08
2023-05-22T07:02:58.243Z,87.18
2023-05-22T07:03:58.184Z,85.97
2023-05-22T07:04:58.178Z,84.57
2023-05-22T07:05:58.287Z,84.77
2023-05-22T07:06:58.183Z,85.17
2023-05-22T07:07:58.142Z,85.47
2023-05-22T07:08:58.144Z,85.97
2023-05-22T07:09:58.137Z,86.74
2023-05-22T07:10:58.106Z,85.24
2023-05-22T07:11:58.121Z,84.43
2023-05-22T07:12:58.090Z,83.33
2023-05-22T07:13:58.079Z,82.73
2023-05-22T07:14:58.060Z,82.93
2023-05-22T07:15:58.131Z,83.29
2023-05-22T07:16:58.084Z,83.59
2023-05-22T07:17:58.076Z,83.49
2023-05-22T07:18:58.055Z,83.19
2023-05-22T07:19:58.017Z,82.39
2023-05-22T07:20:57.993Z,82.69
2023-05-22T07:21:58.005Z,81.79
2023-05-22T07:22:58.036Z,82.18
2023-05-22T07:23:57.964Z,81.79
2023-05-22T07:24:57.948Z,82.09
2023-05-22T07:25:57.950Z,83.19
2023-05-22T07:26:57.944Z,83.75
2023-05-22T07:27:57.913Z,82.99
2023-05-22T07:28:57.901Z,82.09
2023-05-22T07:29:57.894Z,83.45
2023-05-22T07:30:57.876Z,84.45
2023-05-22T07:31:58.015Z,85.05
2023-05-22T07:32:57.875Z,84.81
2023-05-22T07:33:57.845Z,83.41
2023-05-22T07:34:57.826Z,82.91
2023-05-22T07:35:57.830Z,83.11
2023-05-22T07:36:57.838Z,83.47
2023-05-22T07:37:57.805Z,82.67
2023-05-22T07:38:57.784Z,83.13
2023-05-22T07:39:57.770Z,81.73
2023-05-22T07:40:57.770Z,79.89
2023-05-22T07:41:59.398Z,79.59
2023-05-22T07:42:57.772Z,77.75
2023-05-22T07:43:57.721Z,78.25
2023-05-22T07:44:57.740Z,77.86
2023-05-22T07:45:57.776Z,77.45
2023-05-22T07:46:57.730Z,77.12
2023-05-22T07:47:57.718Z,76.22
2023-05-22T07:48:57.784Z,76.65
2023-05-22T07:49:57.741Z,77.82
2023-05-22T07:50:57.659Z,78.28
2023-05-22T07:51:57.651Z,77.88
2023-05-22T07:52:57.633Z,77.14
2023-05-22T07:54:57.607Z,76.61
2023-05-22T07:55:57.585Z,75.65
2023-05-22T07:56:57.626Z,76.54
2023-05-22T07:57:57.586Z,75.05
2023-05-22T07:58:57.559Z,75.98
2023-05-22T07:59:57.560Z,75.32
2023-05-22T08:00:57.538Z,76.22
2023-05-22T08:01:58.516Z,75.42
2023-05-22T08:02:57.619Z,77.18
2023-05-22T08:03:57.641Z,78.18
2023-05-22T08:04:57.511Z,78.88
2023-05-22T08:05:57.557Z,78.54
2023-05-22T08:06:57.502Z,76.75
2023-05-22T08:07:57.480Z,76.15
2023-05-22T08:08:57.454Z,76.01
2023-05-22T08:09:57.437Z,75.91
2023-05-22T08:11:04.197Z,76.67
2023-05-22T08:11:57.437Z,76.07
2023-05-22T08:12:57.410Z,74.77
2023-05-22T08:13:57.387Z,75.18
2023-05-22T08:14:57.384Z,74.98
2023-05-22T08:16:00.691Z,74.74
2023-05-22T08:16:57.401Z,74.15
2023-05-22T08:17:57.391Z,75.24
2023-05-22T08:18:57.374Z,75.60
2023-05-22T08:19:57.387Z,76.36
2023-05-22T08:20:57.313Z,75.27
2023-05-22T08:21:57.319Z,75.16
2023-05-22T08:22:57.298Z,75.93
2023-05-22T08:23:57.290Z,75.23
2023-05-22T08:24:57.288Z,73.94
2023-05-22T08:25:57.257Z,73.94
2023-05-22T08:26:57.299Z,73.14
2023-05-22T08:27:57.242Z,71.78
2023-05-22T08:28:57.226Z,72.58
2023-05-22T08:29:57.211Z,73.08
2023-05-22T08:30:57.209Z,74.04
2023-05-22T08:31:57.292Z,74.54
2023-05-22T08:32:57.283Z,74.90
2023-05-22T08:33:57.178Z,74.90
2023-05-22T08:34:57.165Z,74.26
2023-05-22T08:35:57.151Z,73.73
2023-05-22T08:36:57.173Z,72.74
2023-05-22T08:37:57.132Z,71.34
2023-05-22T08:38:57.133Z,70.85
2023-05-22T08:39:57.120Z,72.64
2023-05-22T08:40:57.107Z,72.80
2023-05-22T08:41:57.126Z,69.26
2023-05-22T08:42:57.086Z,71.45
2023-05-22T08:43:57.077Z,72.44
2023-05-22T08:44:57.062Z,72.44
2023-05-22T08:45:57.052Z,72.74
2023-05-22T08:46:57.060Z,72.14
2023-05-22T08:47:57.113Z,71.75
2023-05-22T08:48:57.032Z,72.77
2023-05-22T08:49:57.025Z,73.27
2023-05-22T08:50:57.000Z,72.47
2023-05-22T08:51:56.983Z,70.68
2023-05-22T08:52:57.004Z,72.31
2023-05-22T08:53:56.982Z,73.21
2023-05-22T08:54:56.970Z,73.86
2023-05-22T08:55:56.948Z,74.37
2023-05-22T08:56:57.616Z,72.97
2023-05-22T08:57:56.965Z,71.78
2023-05-22T08:58:56.929Z,73.07
2023-05-22T08:59:56.903Z,69.92
2023-05-22T09:00:56.922Z,72.17
2023-05-22T09:01:56.886Z,71.68
2023-05-22T09:02:56.954Z,73.14
2023-05-22T09:03:56.900Z,73.73
2023-05-22T09:04:56.859Z,73.10
2023-05-22T09:05:56.837Z,73.69
2023-05-22T09:06:56.862Z,73.76
2023-05-22T09:08:02.529Z,71.28
2023-05-22T09:08:56.822Z,71.25
2023-05-22T09:09:56.879Z,70.55
2023-05-22T09:10:56.806Z,71.11
2023-05-22T09:11:56.775Z,71.41
2023-05-22T09:12:56.793Z,70.62
2023-05-22T09:13:56.757Z,69.92
2023-05-22T09:14:56.744Z,68.53
2023-05-22T09:15:56.732Z,70.75
2023-05-22T09:16:56.758Z,71.25
2023-05-22T09:17:56.812Z,71.04
2023-05-22T09:18:56.770Z,72.24
2023-05-22T09:19:56.684Z,71.70
2023-05-22T09:20:56.685Z,71.25
2023-05-22T09:21:56.670Z,72.50
2023-05-22T09:22:56.706Z,71.11
2023-05-22T09:23:56.648Z,72.07
2023-05-22T09:24:56.635Z,71.37
2023-05-22T09:25:56.632Z,71.67
2023-05-22T09:26:56.613Z,71.73
2023-05-22T09:27:56.623Z,66.15
2023-05-22T09:28:56.595Z,69.46
2023-05-22T09:29:56.587Z,70.55
2023-05-22T09:30:56.603Z,71.41
2023-05-22T09:31:56.687Z,71.31
2023-05-22T09:32:56.648Z,71.61
2023-05-22T09:33:56.530Z,71.08
2023-05-22T09:34:56.523Z,68.90
2023-05-22T09:35:56.511Z,69.79
2023-05-22T09:36:56.493Z,67.01
2023-05-22T09:37:56.515Z,70.81
2023-05-22T09:38:56.476Z,69.76
2023-05-22T09:39:56.481Z,70.42
2023-05-22T09:40:56.451Z,69.92
2023-05-22T09:41:56.441Z,70.58
2023-05-22T09:42:56.461Z,69.39
2023-05-22T09:43:56.421Z,69.76
2023-05-22T09:44:56.416Z,69.56
2023-05-22T09:45:56.433Z,65.00
2023-05-22T09:46:56.387Z,68.13
2023-05-22T09:47:56.449Z,69.53
2023-05-22T09:48:56.375Z,70.02
2023-05-22T09:49:56.349Z,69.32
2023-05-22T09:50:56.386Z,70.58
2023-05-22T09:51:56.350Z,69.09
2023-05-22T09:52:56.352Z,69.36
2023-05-22T09:53:56.309Z,67.87
2023-05-22T09:54:56.305Z,67.90
2023-05-22T09:55:56.298Z,69.09
2023-05-22T09:56:56.290Z,70.58
2023-05-22T09:57:56.303Z,67.21
2023-05-22T09:58:56.269Z,70.38
2023-05-22T09:59:56.260Z,70.78
2023-05-22T10:00:56.251Z,69.69
2023-05-22T10:01:56.250Z,69.79
2023-05-22T10:02:56.282Z,68.99
2023-05-22T10:03:56.206Z,69.29
2023-05-22T10:04:56.228Z,68.83
2023-05-22T10:05:56.198Z,69.20
2023-05-22T10:06:56.212Z,70.28
2023-05-22T10:07:56.166Z,69.85
2023-05-22T10:08:56.156Z,69.16
2023-05-22T10:09:56.152Z,69.62
2023-05-22T10:10:56.184Z,66.88
2023-05-22T10:11:56.177Z,71.57
2023-05-22T10:12:56.134Z,69.59
2023-05-22T10:13:56.099Z,70.09
2023-05-22T10:14:56.094Z,70.98
2023-05-22T10:15:56.120Z,71.44
2023-05-22T10:16:56.080Z,68.43
2023-05-22T10:17:56.111Z,67.38
2023-05-22T10:18:56.083Z,68.86
2023-05-22T10:19:56.036Z,70.51
2023-05-22T10:20:56.025Z,67.14
2023-05-22T10:21:56.011Z,68.60
2023-05-22T10:22:56.025Z,67.61
2023-05-22T10:23:56.001Z,68.37
2023-05-22T10:24:55.985Z,68.43
2023-05-22T10:25:55.982Z,67.94
2023-05-22T10:26:55.954Z,64.87
2023-05-22T10:27:55.958Z,65.99
2023-05-22T10:28:55.928Z,67.47
2023-05-22T10:29:55.914Z,66.91
2023-05-22T10:30:55.915Z,67.47
2023-05-22T10:31:55.895Z,68.27
2023-05-22T10:32:55.968Z,67.94
2023-05-22T10:33:55.882Z,66.55
2023-05-22T10:34:55.875Z,67.71
2023-05-22T10:35:55.852Z,65.20
2023-05-22T10:37:00.395Z,64.71
2023-05-22T10:37:55.849Z,65.30
2023-05-22T10:38:55.854Z,66.49
2023-05-22T10:39:55.798Z,63.92
2023-05-22T10:40:55.808Z,65.93
2023-05-22T10:41:55.807Z,66.22
2023-05-22T10:42:55.802Z,66.62
2023-05-22T10:43:55.758Z,63.85
2023-05-22T10:44:55.763Z,66.62
2023-05-22T10:45:55.754Z,65.44
2023-05-22T10:46:55.734Z,64.45
2023-05-22T10:47:55.744Z,64.35
2023-05-22T10:48:55.708Z,65.63
2023-05-22T10:49:55.718Z,66.42
2023-05-22T10:50:56.042Z,67.21
2023-05-22T10:51:55.670Z,65.80
2023-05-22T10:52:55.683Z,65.67
2023-05-22T10:53:55.654Z,65.73
2023-05-22T10:54:55.650Z,65.73
2023-05-22T10:55:55.635Z,63.56
2023-05-22T10:56:55.624Z,62.68
2023-05-22T10:57:55.632Z,65.34
2023-05-22T10:58:55.616Z,64.72
2023-05-22T10:59:55.598Z,64.52
2023-05-22T11:00:55.579Z,64.98
2023-05-22T11:01:55.611Z,62.12
2023-05-22T11:02:58.658Z,61.63
2023-05-22T11:03:55.543Z,63.90
2023-05-22T11:04:55.581Z,63.40
2023-05-22T11:05:55.526Z,62.52
2023-05-22T11:06:55.521Z,64.81
2023-05-22T11:07:55.525Z,65.37
2023-05-22T11:08:55.517Z,63.60
2023-05-22T11:09:55.480Z,62.71
2023-05-22T11:10:55.475Z,63.47
2023-05-22T11:11:55.463Z,64.00
2023-05-22T11:12:55.471Z,63.87
2023-05-22T11:13:55.440Z,62.49
2023-05-22T11:14:55.510Z,61.60
2023-05-22T11:15:55.421Z,60.02
2023-05-22T11:16:55.500Z,61.50
2023-05-22T11:17:55.489Z,62.78
2023-05-22T11:18:55.470Z,59.03
2023-05-22T11:19:55.426Z,62.02
2023-05-22T11:20:55.385Z,62.02
2023-05-22T11:21:55.355Z,58.23
2023-05-22T11:22:55.372Z,61.32
2023-05-22T11:23:55.328Z,63.76
2023-05-22T11:24:55.327Z,62.94
2023-05-22T11:25:55.309Z,61.66
2023-05-22T11:26:55.308Z,59.88
2023-05-22T11:27:55.328Z,61.10
2023-05-22T11:28:55.288Z,63.34
2023-05-22T11:29:55.270Z,59.56
2023-05-22T11:30:55.317Z,61.76
2023-05-22T11:31:55.249Z,59.98
2023-05-22T11:32:55.322Z,62.84
2023-05-22T11:33:55.255Z,60.97
2023-05-22T11:34:55.286Z,59.95
2023-05-22T11:35:55.220Z,60.35
2023-05-22T11:36:55.200Z,60.31
2023-05-22T11:37:55.207Z,60.31
2023-05-22T11:38:55.197Z,60.09
2023-05-22T11:39:55.172Z,59.01
2023-05-22T11:40:55.175Z,58.05
2023-05-22T11:41:55.159Z,59.03
2023-05-22T11:42:55.158Z,58.84
2023-05-22T11:43:55.122Z,59.56
2023-05-22T11:44:55.112Z,59.56
2023-05-22T11:45:55.129Z,60.97
2023-05-22T11:46:55.106Z,61.46
2023-05-22T11:47:55.117Z,58.89
2023-05-22T11:48:55.071Z,59.98
2023-05-22T11:49:55.050Z,59.69
2023-05-22T11:50:55.056Z,58.89
2023-05-22T11:51:55.037Z,60.38
2023-05-22T11:52:55.050Z,63.21
2023-05-22T11:53:55.013Z,61.90
2023-05-22T11:54:55.003Z,58.61
2023-05-22T11:55:54.996Z,58.00
2023-05-22T11:56:54.981Z,55.95
2023-05-22T11:57:54.996Z,56.74
2023-05-22T11:58:54.959Z,58.19
2023-05-22T11:59:55.027Z,57.90
2023-05-22T12:00:55.117Z,58.19
2023-05-22T12:01:54.937Z,59.05
2023-05-22T12:02:55.057Z,57.97
2023-05-22T12:03:55.105Z,59.22
2023-05-22T12:04:54.885Z,57.05
2023-05-22T12:05:54.895Z,56.56
2023-05-22T12:06:55.057Z,55.93
2023-05-22T12:07:54.897Z,59.17
2023-05-22T12:08:54.849Z,57.92
2023-05-22T12:09:54.846Z,57.33
2023-05-22T12:10:54.829Z,57.49
2023-05-22T12:11:54.828Z,58.67
2023-05-22T12:12:54.821Z,56.80
2023-05-22T12:13:54.787Z,61.96
2023-05-22T12:14:54.773Z,60.44
2023-05-22T12:15:54.772Z,60.44
2023-05-22T12:16:54.844Z,59.06
2023-05-22T12:17:54.798Z,59.85
2023-05-22T12:18:54.775Z,58.45
2023-05-22T12:19:54.732Z,59.01
2023-05-22T12:20:54.716Z,59.89
2023-05-22T12:21:54.704Z,59.30
2023-05-22T12:22:54.716Z,59.01
2023-05-22T12:23:54.680Z,59.57
2023-05-22T12:24:54.680Z,58.02
2023-05-22T12:25:54.657Z,57.43
2023-05-22T12:26:54.645Z,58.34
2023-05-22T12:27:54.662Z,60.02
2023-05-22T12:28:54.631Z,58.45
2023-05-22T12:29:54.628Z,59.11
2023-05-22T12:30:54.626Z,59.50
2023-05-22T12:31:54.632Z,59.27
2023-05-22T12:32:54.683Z,57.97
2023-05-22T12:33:54.574Z,57.18
2023-05-22T12:34:54.559Z,56.79
2023-05-22T12:35:54.561Z,56.49
2023-05-22T12:36:54.557Z,56.79
2023-05-22T12:37:54.556Z,55.21
2023-05-22T12:38:54.527Z,57.67
2023-05-22T12:39:54.529Z,55.90
2023-05-22T12:40:54.505Z,55.77
2023-05-22T12:41:54.497Z,55.58
2023-05-22T12:42:54.505Z,55.41
2023-05-22T12:43:54.473Z,57.08
2023-05-22T12:44:54.452Z,55.90
2023-05-22T12:45:54.483Z,55.48
2023-05-22T12:46:54.474Z,57.05
2023-05-22T12:47:54.469Z,56.56
2023-05-22T12:48:54.408Z,55.08
2023-05-22T12:49:54.429Z,56.85
2023-05-22T12:50:54.404Z,57.51
2023-05-22T12:51:54.383Z,54.27
2023-05-22T12:52:54.425Z,54.96